sensor_id;sensor_type;location;lat;lon;timestamp;pressure;altitude;pressure_sealevel;temperature;humidity
5996;BME280;3026;53.612;7.278;2022-09-03T00:01:27;101477.22;;;16.87;90.58
5996;BME280;3026;53.612;7.278;2022-09-03T00:03:57;101482.06;;;16.85;90.37
5996;BME280;3026;53.612;7.278;2022-09-03T00:06:31;101479.53;;;16.84;90.84
5996;BME280;3026;53.612;7.278;2022-09-03T00:09:02;101475.25;;;16.81;90.80
5996;BME280;3026;53.612;7.278;2022-09-03T00:11:37;101477.38;;;16.79;91.00
5996;BME280;3026;53.612;7.278;2022-09-03T00:14:08;101479.44;;;16.77;91.40
5996;BME280;3026;53.612;7.278;2022-09-03T00:16:44;101470.53;;;16.75;91.57
5996;BME280;3026;53.612;7.278;2022-09-03T00:19:16;101474.75;;;16.71;91.99
5996;BME280;3026;53.612;7.278;2022-09-03T00:21:49;101484.06;;;16.70;91.71
5996;BME280;3026;53.612;7.278;2022-09-03T00:24:20;101471.69;;;16.66;92.12
5996;BME280;3026;53.612;7.278;2022-09-03T00:26:52;101472.72;;;16.65;91.91
5996;BME280;3026;53.612;7.278;2022-09-03T00:29:22;101475.88;;;16.62;92.26
5996;BME280;3026;53.612;7.278;2022-09-03T00:31:54;101473.13;;;16.62;92.52
5996;BME280;3026;53.612;7.278;2022-09-03T00:34:26;101476.28;;;16.59;92.67
5996;BME280;3026;53.612;7.278;2022-09-03T00:36:56;101475.66;;;16.57;92.70
5996;BME280;3026;53.612;7.278;2022-09-03T00:39:25;101480.47;;;16.55;92.98
5996;BME280;3026;53.612;7.278;2022-09-03T00:42:03;101475.38;;;16.52;93.05
5996;BME280;3026;53.612;7.278;2022-09-03T00:44:50;101484.66;;;16.51;93.51
5996;BME280;3026;53.612;7.278;2022-09-03T00:47:24;101478.72;;;16.47;93.92
5996;BME280;3026;53.612;7.278;2022-09-03T00:50:01;101476.16;;;16.46;93.87
5996;BME280;3026;53.612;7.278;2022-09-03T00:52:43;101477.56;;;16.42;94.45
5996;BME280;3026;53.612;7.278;2022-09-03T00:55:25;101472.47;;;16.39;94.87
5996;BME280;3026;53.612;7.278;2022-09-03T00:58:02;101469.28;;;16.35;94.99
5996;BME280;3026;53.612;7.278;2022-09-03T01:00:33;101471.53;;;16.31;95.46
5996;BME280;3026;53.612;7.278;2022-09-03T01:03:05;101475.34;;;16.30;95.19
5996;BME280;3026;53.612;7.278;2022-09-03T01:05:59;101475.09;;;16.25;95.57
5996;BME280;3026;53.612;7.278;2022-09-03T01:08:50;101466.84;;;16.25;95.64
5996;BME280;3026;53.612;7.278;2022-09-03T01:11:27;101466.84;;;16.25;95.83
5996;BME280;3026;53.612;7.278;2022-09-03T01:14:01;101469.59;;;16.25;96.07
5996;BME280;3026;53.612;7.278;2022-09-03T01:16:34;101470.63;;;16.24;96.53
5996;BME280;3026;53.612;7.278;2022-09-03T01:19:12;101474.25;;;16.25;96.22
5996;BME280;3026;53.612;7.278;2022-09-03T01:22:02;101471.69;;;16.23;96.32
5996;BME280;3026;53.612;7.278;2022-09-03T01:24:58;101477.56;;;16.20;96.74
5996;BME280;3026;53.612;7.278;2022-09-03T01:27:40;101475.69;;;16.21;96.68
5996;BME280;3026;53.612;7.278;2022-09-03T01:30:14;101473.78;;;16.21;96.87
5996;BME280;3026;53.612;7.278;2022-09-03T01:32:47;101477.56;;;16.20;97.13
5996;BME280;3026;53.612;7.278;2022-09-03T01:35:22;101475.84;;;16.19;97.20
5996;BME280;3026;53.612;7.278;2022-09-03T01:38:00;101468.84;;;16.17;97.70
5996;BME280;3026;53.612;7.278;2022-09-03T01:40:38;101472.84;;;16.14;97.98
5996;BME280;3026;53.612;7.278;2022-09-03T01:43:30;101466.69;;;16.12;97.52
5996;BME280;3026;53.612;7.278;2022-09-03T01:46:05;101467.72;;;16.11;97.99
5996;BME280;3026;53.612;7.278;2022-09-03T01:48:43;101469.44;;;16.12;98.06
5996;BME280;3026;53.612;7.278;2022-09-03T01:51:19;101470.50;;;16.11;97.95
5996;BME280;3026;53.612;7.278;2022-09-03T01:54:07;101475.31;;;16.09;98.40
5996;BME280;3026;53.612;7.278;2022-09-03T01:56:46;101465.53;;;16.07;98.69
5996;BME280;3026;53.612;7.278;2022-09-03T01:59:27;101465.94;;;16.03;98.64
5996;BME280;3026;53.612;7.278;2022-09-03T02:02:00;101470.59;;;16.03;98.67
5996;BME280;3026;53.612;7.278;2022-09-03T02:04:28;101475.25;;;16.02;99.21
5996;BME280;3026;53.612;7.278;2022-09-03T02:06:58;101471.63;;;16.02;99.57
5996;BME280;3026;53.612;7.278;2022-09-03T02:09:26;101465.47;;;16.00;99.56
5996;BME280;3026;53.612;7.278;2022-09-03T02:11:56;101468.59;;;15.97;99.81
5996;BME280;3026;53.612;7.278;2022-09-03T02:14:25;101466.91;;;15.96;99.53
5996;BME280;3026;53.612;7.278;2022-09-03T02:16:58;101471.75;;;15.94;99.63
5996;BME280;3026;53.612;7.278;2022-09-03T02:19:27;101460.28;;;15.90;100.00
5996;BME280;3026;53.612;7.278;2022-09-03T02:21:56;101471.47;;;15.89;100.00
5996;BME280;3026;53.612;7.278;2022-09-03T02:24:24;101470.81;;;15.87;100.00
5996;BME280;3026;53.612;7.278;2022-09-03T02:26:51;101472.88;;;15.85;100.00
5996;BME280;3026;53.612;7.278;2022-09-03T02:29:19;101477.53;;;15.84;100.00
5996;BME280;3026;53.612;7.278;2022-09-03T02:31:46;101479.63;;;15.82;100.00
5996;BME280;3026;53.612;7.278;2022-09-03T02:34:15;101482.56;;;15.81;100.00
5996;BME280;3026;53.612;7.278;2022-09-03T02:36:43;101480.88;;;15.80;100.00
5996;BME280;3026;53.612;7.278;2022-09-03T02:39:11;101478.31;;;15.78;100.00
5996;BME280;3026;53.612;7.278;2022-09-03T02:41:38;101474.06;;;15.75;100.00
5996;BME280;3026;53.612;7.278;2022-09-03T02:44:07;101476.13;;;15.73;100.00
5996;BME280;3026;53.612;7.278;2022-09-03T02:46:42;101468.94;;;15.72;100.00
5996;BME280;3026;53.612;7.278;2022-09-03T02:49:10;101471.88;;;15.71;100.00
5996;BME280;3026;53.612;7.278;2022-09-03T02:51:40;101468.47;;;15.69;100.00
5996;BME280;3026;53.612;7.278;2022-09-03T02:54:07;101466.75;;;15.68;100.00
5996;BME280;3026;53.612;7.278;2022-09-03T02:56:35;101468.00;;;15.65;100.00
5996;BME280;3026;53.612;7.278;2022-09-03T02:59:03;101473.84;;;15.62;100.00
5996;BME280;3026;53.612;7.278;2022-09-03T03:01:30;101474.91;;;15.61;100.00
5996;BME280;3026;53.612;7.278;2022-09-03T03:03:57;101475.09;;;15.60;100.00
5996;BME280;3026;53.612;7.278;2022-09-03T03:06:24;101478.00;;;15.58;100.00
5996;BME280;3026;53.612;7.278;2022-09-03T03:08:52;101474.59;;;15.56;100.00
5996;BME280;3026;53.612;7.278;2022-09-03T03:11:21;101478.41;;;15.55;100.00
5996;BME280;3026;53.612;7.278;2022-09-03T03:13:49;101484.28;;;15.52;100.00
5996;BME280;3026;53.612;7.278;2022-09-03T03:16:16;101477.03;;;15.51;100.00
5996;BME280;3026;53.612;7.278;2022-09-03T03:18:43;101472.97;;;15.47;100.00
5996;BME280;3026;53.612;7.278;2022-09-03T03:21:13;101462.19;;;15.45;100.00
5996;BME280;3026;53.612;7.278;2022-09-03T03:23:40;101474.41;;;15.43;100.00
5996;BME280;3026;53.612;7.278;2022-09-03T03:26:10;101475.47;;;15.42;100.00
5996;BME280;3026;53.612;7.278;2022-09-03T03:28:37;101482.16;;;15.39;100.00
5996;BME280;3026;53.612;7.278;2022-09-03T03:31:07;101480.66;;;15.37;100.00
5996;BME280;3026;53.612;7.278;2022-09-03T03:33:36;101487.38;;;15.34;100.00
5996;BME280;3026;53.612;7.278;2022-09-03T03:36:04;101484.81;;;15.33;100.00
5996;BME280;3026;53.612;7.278;2022-09-03T03:38:31;101481.41;;;15.31;100.00
5996;BME280;3026;53.612;7.278;2022-09-03T03:40:58;101482.47;;;15.30;100.00
5996;BME280;3026;53.612;7.278;2022-09-03T03:43:26;101480.91;;;15.27;100.00
5996;BME280;3026;53.612;7.278;2022-09-03T03:45:57;101480.44;;;15.24;100.00
5996;BME280;3026;53.612;7.278;2022-09-03T03:48:24;101486.34;;;15.21;100.00
5996;BME280;3026;53.612;7.278;2022-09-03T03:50:51;101479.13;;;15.20;100.00
5996;BME280;3026;53.612;7.278;2022-09-03T03:53:18;101488.41;;;15.18;100.00
5996;BME280;3026;53.612;7.278;2022-09-03T03:55:53;101483.28;;;15.15;100.00
5996;BME280;3026;53.612;7.278;2022-09-03T03:58:21;101484.31;;;15.14;100.00
5996;BME280;3026;53.612;7.278;2022-09-03T04:00:50;101487.44;;;15.11;100.00
5996;BME280;3026;53.612;7.278;2022-09-03T04:03:17;101487.81;;;15.08;100.00
5996;BME280;3026;53.612;7.278;2022-09-03T04:05:53;101482.72;;;15.05;100.00
5996;BME280;3026;53.612;7.278;2022-09-03T04:08:21;101484.78;;;15.03;100.00
5996;BME280;3026;53.612;7.278;2022-09-03T04:10:48;101481.34;;;15.01;100.00
5996;BME280;3026;53.612;7.278;2022-09-03T04:13:15;101482.59;;;14.99;100.00
5996;BME280;3026;53.612;7.278;2022-09-03T04:15:42;101476.25;;;14.98;100.00
5996;BME280;3026;53.612;7.278;2022-09-03T04:18:10;101478.34;;;14.96;100.00
5996;BME280;3026;53.612;7.278;2022-09-03T04:20:37;101477.81;;;14.93;100.00
5996;BME280;3026;53.612;7.278;2022-09-03T04:23:04;101476.13;;;14.92;100.00
5996;BME280;3026;53.612;7.278;2022-09-03T04:25:31;101482.84;;;14.89;100.00
5996;BME280;3026;53.612;7.278;2022-09-03T04:27:58;101486.63;;;14.88;100.00
5996;BME280;3026;53.612;7.278;2022-09-03T04:30:25;101484.94;;;14.87;100.00
5996;BME280;3026;53.612;7.278;2022-09-03T04:32:52;101482.75;;;14.82;100.00
5996;BME280;3026;53.612;7.278;2022-09-03T04:35:20;101485.66;;;14.81;100.00
5996;BME280;3026;53.612;7.278;2022-09-03T04:37:47;101478.47;;;14.80;100.00
5996;BME280;3026;53.612;7.278;2022-09-03T04:40:14;101470.59;;;14.77;100.00
5996;BME280;3026;53.612;7.278;2022-09-03T04:42:41;101475.44;;;14.75;100.00
5996;BME280;3026;53.612;7.278;2022-09-03T04:45:09;101481.78;;;14.75;100.00
5996;BME280;3026;53.612;7.278;2022-09-03T04:47:36;101480.91;;;14.75;100.00
5996;BME280;3026;53.612;7.278;2022-09-03T04:50:03;101482.81;;;14.74;100.00
5996;BME280;3026;53.612;7.278;2022-09-03T04:52:32;101481.31;;;14.72;100.00
5996;BME280;3026;53.612;7.278;2022-09-03T04:54:59;101480.44;;;14.71;100.00
5996;BME280;3026;53.612;7.278;2022-09-03T04:57:26;101476.84;;;14.71;100.00
5996;BME280;3026;53.612;7.278;2022-09-03T04:59:58;101477.84;;;14.70;100.00
5996;BME280;3026;53.612;7.278;2022-09-03T05:02:25;101473.59;;;14.67;100.00
5996;BME280;3026;53.612;7.278;2022-09-03T05:04:52;101480.31;;;14.65;100.00
5996;BME280;3026;53.612;7.278;2022-09-03T05:07:18;101473.97;;;14.64;100.00
5996;BME280;3026;53.612;7.278;2022-09-03T05:09:47;101468.00;;;14.61;100.00
5996;BME280;3026;53.612;7.278;2022-09-03T05:12:14;101464.56;;;14.58;100.00
5996;BME280;3026;53.612;7.278;2022-09-03T05:14:42;101471.78;;;14.59;100.00
5996;BME280;3026;53.612;7.278;2022-09-03T05:17:08;101462.53;;;14.61;100.00
5996;BME280;3026;53.612;7.278;2022-09-03T05:19:35;101468.00;;;14.61;100.00
5996;BME280;3026;53.612;7.278;2022-09-03T05:22:02;101468.00;;;14.61;100.00
5996;BME280;3026;53.612;7.278;2022-09-03T05:24:29;101476.91;;;14.63;100.00
5996;BME280;3026;53.612;7.278;2022-09-03T05:26:58;101481.34;;;14.64;100.00
5996;BME280;3026;53.612;7.278;2022-09-03T05:29:26;101480.31;;;14.65;100.00
5996;BME280;3026;53.612;7.278;2022-09-03T05:31:53;101478.63;;;14.64;100.00
5996;BME280;3026;53.612;7.278;2022-09-03T05:34:20;101480.31;;;14.65;100.00
5996;BME280;3026;53.612;7.278;2022-09-03T05:36:46;101471.03;;;14.66;100.00
5996;BME280;3026;53.612;7.278;2022-09-03T05:39:14;101471.03;;;14.66;100.00
5996;BME280;3026;53.612;7.278;2022-09-03T05:41:40;101474.44;;;14.68;100.00
5996;BME280;3026;53.612;7.278;2022-09-03T05:44:09;101471.72;;;14.68;100.00
5996;BME280;3026;53.612;7.278;2022-09-03T05:46:35;101468.97;;;14.68;100.00
5996;BME280;3026;53.612;7.278;2022-09-03T05:49:04;101475.13;;;14.70;100.00
5996;BME280;3026;53.612;7.278;2022-09-03T05:51:32;101476.84;;;14.71;100.00
5996;BME280;3026;53.612;7.278;2022-09-03T05:53:59;101463.97;;;14.71;100.00
5996;BME280;3026;53.612;7.278;2022-09-03T05:56:27;101473.72;;;14.74;100.00
5996;BME280;3026;53.612;7.278;2022-09-03T05:58:56;101464.44;;;14.75;100.00
5996;BME280;3026;53.612;7.278;2022-09-03T06:01:28;101456.88;;;14.77;100.00
5996;BME280;3026;53.612;7.278;2022-09-03T06:03:57;101462.00;;;14.80;100.00
5996;BME280;3026;53.612;7.278;2022-09-03T06:06:25;101459.94;;;14.82;100.00
5996;BME280;3026;53.612;7.278;2022-09-03T06:08:52;101455.78;;;14.86;100.00
5996;BME280;3026;53.612;7.278;2022-09-03T06:11:20;101452.66;;;14.89;100.00
5996;BME280;3026;53.612;7.278;2022-09-03T06:13:48;101456.72;;;14.93;100.00
5996;BME280;3026;53.612;7.278;2022-09-03T06:16:15;101456.38;;;14.96;100.00
5996;BME280;3026;53.612;7.278;2022-09-03T06:18:43;101456.84;;;15.00;100.00
5996;BME280;3026;53.612;7.278;2022-09-03T06:21:10;101459.00;;;15.04;100.00
5996;BME280;3026;53.612;7.278;2022-09-03T06:23:37;101459.31;;;15.09;100.00
5996;BME280;3026;53.612;7.278;2022-09-03T06:26:05;101457.53;;;15.16;100.00
5996;BME280;3026;53.612;7.278;2022-09-03T06:28:33;101455.25;;;15.20;100.00
5996;BME280;3026;53.612;7.278;2022-09-03T06:31:01;101462.72;;;15.26;100.00
5996;BME280;3026;53.612;7.278;2022-09-03T06:33:28;101456.50;;;15.32;100.00
5996;BME280;3026;53.612;7.278;2022-09-03T06:35:58;101462.06;;;15.39;100.00
5996;BME280;3026;53.612;7.278;2022-09-03T06:38:26;101453.09;;;15.45;100.00
5996;BME280;3026;53.612;7.278;2022-09-03T06:40:55;101462.44;;;15.51;100.00
5996;BME280;3026;53.612;7.278;2022-09-03T06:43:22;101456.22;;;15.57;100.00
5996;BME280;3026;53.612;7.278;2022-09-03T06:45:55;101454.44;;;15.64;100.00
5996;BME280;3026;53.612;7.278;2022-09-03T06:48:22;101452.81;;;15.69;100.00
5996;BME280;3026;53.612;7.278;2022-09-03T06:50:56;101453.38;;;15.80;100.00
5996;BME280;3026;53.612;7.278;2022-09-03T06:53:26;101465.97;;;15.89;100.00
5996;BME280;3026;53.612;7.278;2022-09-03T06:55:55;101464.16;;;15.96;100.00
5996;BME280;3026;53.612;7.278;2022-09-03T06:58:22;101453.69;;;16.06;100.00
5996;BME280;3026;53.612;7.278;2022-09-03T07:00:49;101454.03;;;16.18;100.00
5996;BME280;3026;53.612;7.278;2022-09-03T07:03:17;101454.78;;;16.26;100.00
5996;BME280;3026;53.612;7.278;2022-09-03T07:05:44;101453.13;;;16.32;100.00
5996;BME280;3026;53.612;7.278;2022-09-03T07:08:11;101449.81;;;16.37;100.00
5996;BME280;3026;53.612;7.278;2022-09-03T07:10:39;101456.63;;;16.41;100.00
5996;BME280;3026;53.612;7.278;2022-09-03T07:13:07;101452.03;;;16.48;100.00
5996;BME280;3026;53.612;7.278;2022-09-03T07:15:34;101451.22;;;16.54;100.00
5996;BME280;3026;53.612;7.278;2022-09-03T07:18:01;101453.22;;;16.60;100.00
5996;BME280;3026;53.612;7.278;2022-09-03T07:20:27;101449.00;;;16.64;100.00
5996;BME280;3026;53.612;7.278;2022-09-03T07:22:54;101458.22;;;16.71;100.00
5996;BME280;3026;53.612;7.278;2022-09-03T07:25:23;101455.72;;;16.76;100.00
5996;BME280;3026;53.612;7.278;2022-09-03T07:27:52;101460.84;;;16.79;100.00
5996;BME280;3026;53.612;7.278;2022-09-03T07:30:18;101459.63;;;16.88;100.00
5996;BME280;3026;53.612;7.278;2022-09-03T07:32:46;101464.56;;;16.93;100.00
5996;BME280;3026;53.612;7.278;2022-09-03T07:35:16;101460.13;;;16.99;100.00
5996;BME280;3026;53.612;7.278;2022-09-03T07:37:44;101455.53;;;17.06;100.00
5996;BME280;3026;53.612;7.278;2022-09-03T07:40:11;101459.59;;;17.10;100.00
5996;BME280;3026;53.612;7.278;2022-09-03T07:42:38;101460.09;;;17.20;100.00
5996;BME280;3026;53.612;7.278;2022-09-03T07:45:07;101451.03;;;17.26;100.00
5996;BME280;3026;53.612;7.278;2022-09-03T07:47:36;101447.72;;;17.37;100.00
5996;BME280;3026;53.612;7.278;2022-09-03T07:50:04;101456.69;;;17.53;100.00
5996;BME280;3026;53.612;7.278;2022-09-03T07:52:31;101451.25;;;17.66;100.00
5996;BME280;3026;53.612;7.278;2022-09-03T07:54:57;101444.13;;;17.78;99.91
5996;BME280;3026;53.612;7.278;2022-09-03T07:57:25;101448.00;;;17.90;99.30
5996;BME280;3026;53.612;7.278;2022-09-03T07:59:51;101448.69;;;18.05;98.80
5996;BME280;3026;53.612;7.278;2022-09-03T08:02:20;101453.59;;;18.17;98.12
5996;BME280;3026;53.612;7.278;2022-09-03T08:04:46;101451.94;;;18.29;97.38
5996;BME280;3026;53.612;7.278;2022-09-03T08:07:13;101451.16;;;18.42;96.48
5996;BME280;3026;53.612;7.278;2022-09-03T08:09:40;101461.97;;;18.50;95.31
5996;BME280;3026;53.612;7.278;2022-09-03T08:12:07;101457.31;;;18.63;94.74
5996;BME280;3026;53.612;7.278;2022-09-03T08:14:34;101461.22;;;18.76;94.54
5996;BME280;3026;53.612;7.278;2022-09-03T08:17:01;101466.09;;;18.93;93.91
5996;BME280;3026;53.612;7.278;2022-09-03T08:19:29;101463.94;;;19.09;92.83
5996;BME280;3026;53.612;7.278;2022-09-03T08:21:56;101466.06;;;19.27;91.17
5996;BME280;3026;53.612;7.278;2022-09-03T08:24:22;101458.81;;;19.39;90.44
5996;BME280;3026;53.612;7.278;2022-09-03T08:26:50;101459.22;;;19.56;90.33
5996;BME280;3026;53.612;7.278;2022-09-03T08:29:18;101465.75;;;19.74;89.26
5996;BME280;3026;53.612;7.278;2022-09-03T08:31:45;101475.72;;;19.89;88.20
5996;BME280;3026;53.612;7.278;2022-09-03T08:34:12;101474.41;;;19.98;86.59
5996;BME280;3026;53.612;7.278;2022-09-03T08:36:42;101472.19;;;20.13;84.79
5996;BME280;3026;53.612;7.278;2022-09-03T08:39:10;101479.25;;;20.09;84.21
5996;BME280;3026;53.612;7.278;2022-09-03T08:41:52;101478.19;;;20.10;83.47
5996;BME280;3026;53.612;7.278;2022-09-03T08:44:24;101461.97;;;20.14;83.07
5996;BME280;3026;53.612;7.278;2022-09-03T08:46:57;101462.50;;;20.35;83.27
5996;BME280;3026;53.612;7.278;2022-09-03T08:49:30;101455.41;;;20.53;83.17
5996;BME280;3026;53.612;7.278;2022-09-03T08:52:04;101464.06;;;20.63;82.30
5996;BME280;3026;53.612;7.278;2022-09-03T08:54:34;101462.44;;;20.80;82.46
5996;BME280;3026;53.612;7.278;2022-09-03T08:57:02;101460.50;;;21.06;81.70
5996;BME280;3026;53.612;7.278;2022-09-03T08:59:30;101460.56;;;21.24;80.88
5996;BME280;3026;53.612;7.278;2022-09-03T09:02:03;101466.63;;;21.39;80.24
5996;BME280;3026;53.612;7.278;2022-09-03T09:04:46;101464.34;;;21.54;79.14
5996;BME280;3026;53.612;7.278;2022-09-03T09:07:23;101452.84;;;21.69;78.66
5996;BME280;3026;53.612;7.278;2022-09-03T09:09:56;101457.69;;;21.74;77.73
5996;BME280;3026;53.612;7.278;2022-09-03T09:12:34;101449.38;;;21.92;77.71
5996;BME280;3026;53.612;7.278;2022-09-03T09:15:10;101450.84;;;22.13;76.91
5996;BME280;3026;53.612;7.278;2022-09-03T09:17:50;101453.75;;;22.18;75.85
5996;BME280;3026;53.612;7.278;2022-09-03T09:20:31;101446.44;;;22.24;75.14
5996;BME280;3026;53.612;7.278;2022-09-03T09:23:03;101454.81;;;22.35;74.46
5996;BME280;3026;53.612;7.278;2022-09-03T09:25:31;101446.50;;;22.47;74.40
5996;BME280;3026;53.612;7.278;2022-09-03T09:28:11;101447.03;;;22.67;74.23
5996;BME280;3026;53.612;7.278;2022-09-03T09:30:39;101454.53;;;22.79;73.43
5996;BME280;3026;53.612;7.278;2022-09-03T09:33:06;101448.19;;;22.90;72.92
5996;BME280;3026;53.612;7.278;2022-09-03T09:35:33;101447.84;;;22.98;71.82
5996;BME280;3026;53.612;7.278;2022-09-03T09:38:01;101450.63;;;23.10;71.16
5996;BME280;3026;53.612;7.278;2022-09-03T09:40:30;101434.78;;;23.34;70.56
5996;BME280;3026;53.612;7.278;2022-09-03T09:43:06;101443.03;;;23.52;69.87
5996;BME280;3026;53.612;7.278;2022-09-03T09:45:33;101450.28;;;23.53;69.28
5996;BME280;3026;53.612;7.278;2022-09-03T09:48:01;101448.59;;;23.52;68.37
5996;BME280;3026;53.612;7.278;2022-09-03T09:50:29;101445.31;;;23.55;68.14
5996;BME280;3026;53.612;7.278;2022-09-03T09:53:01;101449.03;;;23.72;67.41
5996;BME280;3026;53.612;7.278;2022-09-03T09:55:33;101456.53;;;23.83;67.28
5996;BME280;3026;53.612;7.278;2022-09-03T09:58:05;101440.88;;;23.94;66.37
5996;BME280;3026;53.612;7.278;2022-09-03T10:00:34;101444.63;;;24.00;66.43
5996;BME280;3026;53.612;7.278;2022-09-03T10:03:06;101452.56;;;24.20;65.93
5996;BME280;3026;53.612;7.278;2022-09-03T10:05:37;101448.88;;;24.31;65.10
5996;BME280;3026;53.612;7.278;2022-09-03T10:08:18;101441.69;;;24.47;64.69
5996;BME280;3026;53.612;7.278;2022-09-03T10:10:48;101435.50;;;24.44;64.65
5996;BME280;3026;53.612;7.278;2022-09-03T10:13:18;101441.56;;;24.41;64.43
5996;BME280;3026;53.612;7.278;2022-09-03T10:15:49;101446.84;;;24.55;63.82
5996;BME280;3026;53.612;7.278;2022-09-03T10:18:23;101453.63;;;24.59;63.97
5996;BME280;3026;53.612;7.278;2022-09-03T10:20:57;101453.09;;;24.62;63.25
5996;BME280;3026;53.612;7.278;2022-09-03T10:23:34;101441.22;;;24.66;63.01
5996;BME280;3026;53.612;7.278;2022-09-03T10:26:08;101434.72;;;24.78;62.62
5996;BME280;3026;53.612;7.278;2022-09-03T10:28:38;101452.28;;;24.78;62.22
5996;BME280;3026;53.612;7.278;2022-09-03T10:31:16;101436.72;;;24.82;62.16
5996;BME280;3026;53.612;7.278;2022-09-03T10:33:47;101443.66;;;24.96;62.17
5996;BME280;3026;53.612;7.278;2022-09-03T10:36:21;101421.88;;;25.10;62.22
5996;BME280;3026;53.612;7.278;2022-09-03T10:38:57;101426.19;;;25.18;62.28
5996;BME280;3026;53.612;7.278;2022-09-03T10:41:38;101427.69;;;25.25;59.92
5996;BME280;3026;53.612;7.278;2022-09-03T10:44:35;101431.50;;;25.36;60.25
5996;BME280;3026;53.612;7.278;2022-09-03T10:47:20;101431.03;;;25.44;60.47
5996;BME280;3026;53.612;7.278;2022-09-03T10:49:53;101423.13;;;25.58;59.97
5996;BME280;3026;53.612;7.278;2022-09-03T10:52:30;101419.63;;;25.68;60.07
5996;BME280;3026;53.612;7.278;2022-09-03T10:55:13;101423.78;;;25.82;58.51
5996;BME280;3026;53.612;7.278;2022-09-03T10:57:48;101416.25;;;25.82;58.71
5996;BME280;3026;53.612;7.278;2022-09-03T11:00:18;101424.84;;;25.81;57.89
5996;BME280;3026;53.612;7.278;2022-09-03T11:03:06;101423.09;;;25.75;57.43
5996;BME280;3026;53.612;7.278;2022-09-03T11:05:39;101420.22;;;25.70;57.49
5996;BME280;3026;53.612;7.278;2022-09-03T11:08:11;101420.31;;;25.75;57.39
5996;BME280;3026;53.612;7.278;2022-09-03T11:10:45;101412.06;;;25.85;57.55
5996;BME280;3026;53.612;7.278;2022-09-03T11:13:18;101420.50;;;25.90;56.64
5996;BME280;3026;53.612;7.278;2022-09-03T11:15:50;101413.75;;;25.86;56.14
5996;BME280;3026;53.612;7.278;2022-09-03T11:18:21;101411.34;;;25.95;56.15
5996;BME280;3026;53.612;7.278;2022-09-03T11:20:52;101422.16;;;26.13;56.17
5996;BME280;3026;53.612;7.278;2022-09-03T11:23:21;101404.94;;;26.21;56.13
5996;BME280;3026;53.612;7.278;2022-09-03T11:25:55;101408.09;;;26.30;56.49
5996;BME280;3026;53.612;7.278;2022-09-03T11:28:31;101400.84;;;26.29;53.49
5996;BME280;3026;53.612;7.278;2022-09-03T11:31:19;101414.44;;;26.20;54.14
5996;BME280;3026;53.612;7.278;2022-09-03T11:33:52;101406.31;;;26.18;54.92
5996;BME280;3026;53.612;7.278;2022-09-03T11:36:28;101409.94;;;26.19;53.81
5996;BME280;3026;53.612;7.278;2022-09-03T11:38:55;101412.31;;;26.05;53.48
5996;BME280;3026;53.612;7.278;2022-09-03T11:41:25;101401.16;;;26.05;53.01
5996;BME280;3026;53.612;7.278;2022-09-03T11:43:53;101408.91;;;26.03;52.90
5996;BME280;3026;53.612;7.278;2022-09-03T11:46:28;101397.75;;;26.03;52.93
5996;BME280;3026;53.612;7.278;2022-09-03T11:49:07;101402.81;;;26.06;52.77
5996;BME280;3026;53.612;7.278;2022-09-03T11:51:56;101398.91;;;26.07;52.62
5996;BME280;3026;53.612;7.278;2022-09-03T11:54:25;101403.97;;;26.10;52.02
5996;BME280;3026;53.612;7.278;2022-09-03T11:57:05;101405.75;;;26.16;52.05
5996;BME280;3026;53.612;7.278;2022-09-03T11:59:34;101402.72;;;26.23;51.67
5996;BME280;3026;53.612;7.278;2022-09-03T12:02:08;101405.78;;;26.22;51.24
5996;BME280;3026;53.612;7.278;2022-09-03T12:04:45;101397.41;;;26.22;51.02
5996;BME280;3026;53.612;7.278;2022-09-03T12:07:25;101389.00;;;26.22;50.85
5996;BME280;3026;53.612;7.278;2022-09-03T12:10:19;101407.50;;;26.28;50.56
5996;BME280;3026;53.612;7.278;2022-09-03T12:12:59;101390.81;;;26.33;51.81
5996;BME280;3026;53.612;7.278;2022-09-03T12:15:44;101398.06;;;26.34;50.63
5996;BME280;3026;53.612;7.278;2022-09-03T12:18:19;101406.19;;;26.35;50.88
5996;BME280;3026;53.612;7.278;2022-09-03T12:21:00;101400.31;;;26.32;50.11
5996;BME280;3026;53.612;7.278;2022-09-03T12:23:29;101397.44;;;26.27;50.67
5996;BME280;3026;53.612;7.278;2022-09-03T12:25:57;101397.97;;;26.24;50.27
5996;BME280;3026;53.612;7.278;2022-09-03T12:28:28;101397.84;;;26.13;49.94
5996;BME280;3026;53.612;7.278;2022-09-03T12:31:05;101398.69;;;26.14;50.07
5996;BME280;3026;53.612;7.278;2022-09-03T12:33:34;101393.09;;;26.14;50.51
5996;BME280;3026;53.612;7.278;2022-09-03T12:36:01;101394.50;;;26.11;50.44
5996;BME280;3026;53.612;7.278;2022-09-03T12:38:28;101390.66;;;26.17;50.96
5996;BME280;3026;53.612;7.278;2022-09-03T12:40:57;101390.16;;;26.26;50.90
5996;BME280;3026;53.612;7.278;2022-09-03T12:43:28;101386.38;;;26.37;50.70
5996;BME280;3026;53.612;7.278;2022-09-03T12:45:55;101389.25;;;26.42;50.97
5996;BME280;3026;53.612;7.278;2022-09-03T12:48:22;101389.53;;;26.40;51.29
5996;BME280;3026;53.612;7.278;2022-09-03T12:51:00;101380.47;;;26.33;50.51
5996;BME280;3026;53.612;7.278;2022-09-03T12:53:29;101386.91;;;26.34;49.98
5996;BME280;3026;53.612;7.278;2022-09-03T12:55:59;101387.69;;;26.29;49.19
5996;BME280;3026;53.612;7.278;2022-09-03T12:58:31;101385.09;;;26.23;48.65
5996;BME280;3026;53.612;7.278;2022-09-03T13:01:07;101378.63;;;26.17;49.00
5996;BME280;3026;53.612;7.278;2022-09-03T13:03:43;101374.34;;;26.09;48.34
5996;BME280;3026;53.612;7.278;2022-09-03T13:06:15;101361.69;;;26.02;48.79
5996;BME280;3026;53.612;7.278;2022-09-03T13:08:46;101370.03;;;25.97;48.49
5996;BME280;3026;53.612;7.278;2022-09-03T13:11:16;101358.50;;;25.93;49.14
5996;BME280;3026;53.612;7.278;2022-09-03T13:13:52;101363.00;;;25.94;49.52
5996;BME280;3026;53.612;7.278;2022-09-03T13:16:41;101368.00;;;25.92;49.03
5996;BME280;3026;53.612;7.278;2022-09-03T13:19:21;101357.34;;;25.89;49.02
5996;BME280;3026;53.612;7.278;2022-09-03T13:21:54;101353.44;;;25.90;48.95
5996;BME280;3026;53.612;7.278;2022-09-03T13:24:44;101350.06;;;25.88;48.23
5996;BME280;3026;53.612;7.278;2022-09-03T13:27:26;101350.06;;;25.88;48.91
5996;BME280;3026;53.612;7.278;2022-09-03T13:30:04;101345.34;;;25.88;48.56